createdAt,value
2018-05-05T00:00:06.151Z,13.60
2018-05-05T00:02:33.918Z,9.97
2018-05-05T00:05:01.362Z,13.67
2018-05-05T00:07:28.801Z,14.53
2018-05-05T00:09:56.230Z,14.50
2018-05-05T00:12:23.645Z,18.30
2018-05-05T00:14:51.992Z,14.13
2018-05-05T00:17:19.417Z,16.30
2018-05-05T00:19:46.889Z,10.97
2018-05-05T00:22:14.309Z,12.80
2018-05-05T00:24:41.753Z,15.50
2018-05-05T00:27:09.171Z,9.63
2018-05-05T00:29:36.608Z,12.73
2018-05-05T00:32:04.025Z,12.37
2018-05-05T00:34:31.463Z,12.67
2018-05-05T00:36:58.877Z,20.20
2018-05-05T00:39:26.325Z,15.37
2018-05-05T00:41:53.746Z,14.83
2018-05-05T00:44:21.197Z,14.70
2018-05-05T00:46:48.627Z,16.30
2018-05-05T00:49:16.987Z,13.83
2018-05-05T00:51:44.438Z,13.87
2018-05-05T00:54:23.509Z,12.37
2018-05-05T00:56:50.972Z,23.53
2018-05-05T00:59:19.110Z,17.10
2018-05-05T01:01:46.573Z,12.30
2018-05-05T01:04:13.998Z,14.20
2018-05-05T01:06:41.461Z,16.43
2018-05-05T01:09:08.882Z,16.93
2018-05-05T01:11:36.330Z,17.73
2018-05-05T01:14:04.478Z,15.00
2018-05-05T01:16:31.935Z,18.57
2018-05-05T01:18:59.383Z,16.00
2018-05-05T01:21:26.845Z,17.70
2018-05-05T01:23:54.266Z,19.93
2018-05-05T01:26:21.674Z,16.23
2018-05-05T01:28:49.121Z,14.33
2018-05-05T01:31:16.541Z,15.17
2018-05-05T01:33:43.986Z,18.30
2018-05-05T01:36:11.413Z,14.63
2018-05-05T01:38:38.858Z,15.20
2018-05-05T01:41:06.286Z,16.63
2018-05-05T01:43:33.734Z,17.80
2018-05-05T01:46:01.149Z,16.20
2018-05-05T01:48:28.595Z,16.30
2018-05-05T01:50:56.007Z,22.50
2018-05-05T01:53:23.465Z,19.60
2018-05-05T01:55:51.786Z,18.27
2018-05-05T01:58:19.225Z,12.63
2018-05-05T02:00:47.478Z,20.67
2018-05-05T02:03:14.922Z,24.77
2018-05-05T02:05:42.361Z,19.42
2018-05-05T02:08:09.817Z,14.55
2018-05-05T02:10:37.226Z,15.20
2018-05-05T02:13:04.682Z,14.52
2018-05-05T02:15:32.115Z,15.13
2018-05-05T02:17:59.571Z,18.33
2018-05-05T02:20:27.000Z,17.33
2018-05-05T02:22:54.409Z,16.73
2018-05-05T02:25:21.858Z,20.65
2018-05-05T02:27:49.281Z,20.27
2018-05-05T02:30:16.739Z,23.85
2018-05-05T02:32:44.181Z,16.02
2018-05-05T02:35:11.629Z,15.35
2018-05-05T02:37:39.051Z,14.50
2018-05-05T02:40:06.489Z,15.07
2018-05-05T02:42:33.925Z,12.73
2018-05-05T02:45:02.294Z,14.90
2018-05-05T02:47:29.710Z,12.30
2018-05-05T02:49:57.154Z,11.90
2018-05-05T02:52:24.570Z,15.63
2018-05-05T02:54:52.041Z,13.53
2018-05-05T02:57:19.454Z,13.83
2018-05-05T02:59:46.911Z,12.83
2018-05-05T03:02:14.354Z,15.17
2018-05-05T03:04:42.695Z,14.03
2018-05-05T03:07:11.006Z,18.40
2018-05-05T03:09:38.482Z,13.13
2018-05-05T03:12:05.910Z,13.43
2018-05-05T03:14:33.379Z,12.13
2018-05-05T03:17:00.790Z,15.03
2018-05-05T03:19:29.134Z,14.07
2018-05-05T03:21:58.516Z,19.50
2018-05-05T03:24:25.947Z,15.73
2018-05-05T03:26:54.377Z,15.38
2018-05-05T03:29:21.746Z,12.87
2018-05-05T03:31:49.196Z,17.63
2018-05-05T03:34:18.539Z,19.30
2018-05-05T03:36:46.011Z,14.23
2018-05-05T03:39:14.349Z,13.90
2018-05-05T03:41:42.743Z,13.53
2018-05-05T03:44:11.091Z,13.77
2018-05-05T03:46:38.553Z,17.92
2018-05-05T03:49:05.982Z,14.82
2018-05-05T03:51:33.460Z,14.80
2018-05-05T03:54:01.798Z,27.83
2018-05-05T03:56:29.251Z,18.25
2018-05-05T03:59:08.340Z,14.77
2018-05-05T04:02:14.580Z,12.82
2018-05-05T04:19:15.847Z,12.30
2018-05-05T04:21:43.352Z,15.93
2018-05-05T04:24:10.787Z,39.17
2018-05-05T04:26:41.162Z,15.70
2018-05-05T04:29:13.850Z,14.67
2018-05-05T04:31:45.429Z,13.73
2018-05-05T04:34:12.899Z,15.13
2018-05-05T04:36:40.334Z,9.33
2018-05-05T04:39:07.790Z,15.07
2018-05-05T04:41:36.126Z,14.50
2018-05-05T04:44:03.576Z,10.97
2018-05-05T04:46:31.946Z,14.90
2018-05-05T04:48:59.403Z,16.70
2018-05-05T04:51:27.879Z,15.47
2018-05-05T04:53:55.252Z,17.40
2018-05-05T04:56:26.246Z,14.67
2018-05-05T04:58:58.893Z,13.73
2018-05-05T05:01:31.568Z,17.53
2018-05-05T05:04:01.292Z,15.17
2018-05-05T05:12:45.985Z,12.77
2018-05-05T05:15:20.440Z,18.17
2018-05-05T05:18:00.872Z,12.90
2018-05-05T05:20:40.137Z,14.90
2018-05-05T05:23:19.028Z,14.57
2018-05-05T05:26:02.671Z,12.67
2018-05-05T05:28:54.102Z,9.63
2018-05-05T05:31:22.616Z,14.90
2018-05-05T05:33:50.034Z,11.13
2018-05-05T05:36:17.492Z,14.93
2018-05-05T05:38:44.910Z,18.93
2018-05-05T05:41:14.251Z,18.03
2018-05-05T05:43:41.682Z,12.80
2018-05-05T05:46:09.137Z,11.70
2018-05-05T05:48:36.558Z,9.70
2018-05-05T05:51:04.005Z,11.80
2018-05-05T05:53:31.442Z,17.40
2018-05-05T05:55:58.898Z,18.50
2018-05-05T05:58:26.325Z,18.07
2018-05-05T06:00:53.781Z,18.80
2018-05-05T06:03:21.216Z,17.47
2018-05-05T06:05:48.675Z,13.83
2018-05-05T06:08:16.102Z,19.30
2018-05-05T06:10:43.523Z,16.33
2018-05-05T06:13:11.866Z,12.00
2018-05-05T06:15:40.190Z,15.97
2018-05-05T06:18:07.647Z,13.60
2018-05-05T06:20:35.079Z,20.03
2018-05-05T06:23:02.522Z,14.40
2018-05-05T06:25:29.934Z,15.33
2018-05-05T06:27:57.371Z,19.87
2018-05-05T06:30:24.803Z,17.87
2018-05-05T06:32:52.249Z,11.77
2018-05-05T06:35:19.683Z,23.63
2018-05-05T06:37:47.159Z,26.97
2018-05-05T06:40:15.501Z,10.20
2018-05-05T06:42:42.945Z,16.13
2018-05-05T06:45:10.366Z,18.90
2018-05-05T06:47:41.388Z,20.17
2018-05-05T06:50:08.805Z,12.65
2018-05-05T06:52:36.303Z,10.33
2018-05-05T06:55:03.721Z,11.17
2018-05-05T06:57:32.089Z,12.70
2018-05-05T06:59:59.529Z,13.93
2018-05-05T07:02:26.944Z,12.43
2018-05-05T07:04:54.386Z,16.70
2018-05-05T07:07:21.798Z,18.00
2018-05-05T07:09:49.238Z,15.10
2018-05-05T07:12:16.651Z,17.03
2018-05-05T07:14:44.096Z,12.82
2018-05-05T07:17:11.509Z,13.13
2018-05-05T07:19:38.947Z,11.07
2018-05-05T07:22:06.360Z,11.20
2018-05-05T07:24:33.793Z,8.87
2018-05-05T07:27:01.205Z,8.90
2018-05-05T07:29:28.644Z,8.63
2018-05-05T07:31:56.054Z,11.33
2018-05-05T07:34:23.501Z,10.83
2018-05-05T07:36:50.921Z,11.43
2018-05-05T07:39:18.354Z,3.70
2018-05-05T07:41:45.793Z,6.70
2018-05-05T07:44:13.238Z,8.15
2018-05-05T07:46:40.642Z,8.10
2018-05-05T07:49:08.049Z,8.70
2018-05-05T07:51:37.082Z,9.80
2018-05-05T07:54:04.494Z,15.30
2018-05-05T07:56:31.928Z,6.40
2018-05-05T07:58:59.339Z,6.50
2018-05-05T08:01:26.769Z,8.53
2018-05-05T08:03:54.177Z,8.40
2018-05-05T08:06:21.622Z,11.47
2018-05-05T08:08:49.042Z,6.60
2018-05-05T08:11:16.470Z,7.80
2018-05-05T08:13:43.891Z,5.27
2018-05-05T08:16:11.323Z,8.80
2018-05-05T08:18:38.734Z,7.30
2018-05-05T08:21:06.165Z,7.50
2018-05-05T08:23:33.573Z,12.83
2018-05-05T08:26:01.009Z,5.57
2018-05-05T08:28:29.321Z,5.73
2018-05-05T08:30:56.761Z,9.27
2018-05-05T08:33:24.197Z,8.53
2018-05-05T08:35:51.615Z,10.10
2018-05-05T08:38:19.059Z,11.07
2018-05-05T08:40:46.467Z,7.77
2018-05-05T08:43:13.906Z,6.17
2018-05-05T08:45:41.313Z,9.07
2018-05-05T08:48:08.746Z,8.50
2018-05-05T08:50:36.161Z,12.57
2018-05-05T08:53:03.602Z,8.70
2018-05-05T08:55:31.009Z,12.83
2018-05-05T08:57:58.442Z,7.40
2018-05-05T09:00:25.861Z,7.87
2018-05-05T09:02:53.289Z,8.80
2018-05-05T09:05:20.702Z,11.37
2018-05-05T09:07:48.149Z,8.97
2018-05-05T09:10:15.560Z,17.00
2018-05-05T09:12:42.973Z,10.10
2018-05-05T09:15:10.421Z,9.47
2018-05-05T09:17:37.858Z,8.77
2018-05-05T09:20:05.298Z,12.00
2018-05-05T09:22:32.705Z,6.10
2018-05-05T09:25:00.146Z,11.23
2018-05-05T09:27:29.455Z,6.13
2018-05-05T09:29:57.793Z,8.33
2018-05-05T09:32:25.197Z,7.13
2018-05-05T09:34:52.638Z,11.77
2018-05-05T09:37:20.054Z,9.83
2018-05-05T09:39:47.494Z,17.40
2018-05-05T09:42:14.902Z,11.60
2018-05-05T09:44:42.337Z,12.83
2018-05-05T09:47:09.761Z,7.10
2018-05-05T09:49:37.205Z,15.07
2018-05-05T09:52:04.623Z,6.20
2018-05-05T09:54:32.034Z,9.20
2018-05-05T09:56:59.470Z,10.00
2018-05-05T09:59:26.892Z,12.30
2018-05-05T10:01:54.330Z,12.13
2018-05-05T10:04:21.741Z,18.00
2018-05-05T10:06:49.185Z,10.83
2018-05-05T10:09:16.602Z,8.37
2018-05-05T10:11:44.033Z,11.63
2018-05-05T10:14:11.452Z,10.70
2018-05-05T10:16:38.893Z,12.80
2018-05-05T10:19:06.294Z,9.23
2018-05-05T10:21:33.731Z,11.50
2018-05-05T10:24:01.149Z,12.67
2018-05-05T10:26:28.594Z,11.90
2018-05-05T10:28:56.005Z,15.57
2018-05-05T10:31:23.441Z,12.70
2018-05-05T10:33:50.857Z,10.77
2018-05-05T10:36:18.340Z,13.67
2018-05-05T10:38:45.757Z,17.33
2018-05-05T10:41:13.165Z,9.13
2018-05-05T10:43:40.608Z,12.00
2018-05-05T10:46:08.015Z,6.87
2018-05-05T10:48:36.378Z,9.43
2018-05-05T10:51:03.801Z,10.37
2018-05-05T10:53:31.237Z,8.57
2018-05-05T10:55:58.650Z,7.30
2018-05-05T10:58:26.987Z,14.20
2018-05-05T11:00:55.293Z,7.93
2018-05-05T11:03:22.724Z,7.43
2018-05-05T11:05:50.129Z,7.43
2018-05-05T11:08:17.562Z,8.93
2018-05-05T11:10:44.973Z,17.67
2018-05-05T11:13:12.409Z,8.60
2018-05-05T11:15:39.822Z,10.40
2018-05-05T11:18:07.253Z,10.40
2018-05-05T11:20:34.661Z,8.70
2018-05-05T11:23:02.077Z,12.20
2018-05-05T11:25:29.528Z,16.80
2018-05-05T11:27:56.933Z,6.30
2018-05-05T11:30:24.373Z,16.10
2018-05-05T11:32:51.793Z,7.37
2018-05-05T11:35:19.237Z,13.30
2018-05-05T11:37:46.653Z,16.23
2018-05-05T11:40:14.098Z,10.97
2018-05-05T11:42:41.512Z,8.60
2018-05-05T11:45:08.949Z,9.10
2018-05-05T11:47:36.362Z,18.10
2018-05-05T11:50:03.802Z,14.47
2018-05-05T11:52:31.217Z,11.03
2018-05-05T11:54:58.656Z,8.23
2018-05-05T11:57:26.062Z,13.53
2018-05-05T11:59:53.513Z,8.47
2018-05-05T12:02:20.963Z,10.48
2018-05-05T12:04:48.361Z,7.90
2018-05-05T12:07:15.781Z,9.00
2018-05-05T12:09:43.253Z,15.43
2018-05-05T12:12:10.677Z,10.47
2018-05-05T12:14:38.126Z,9.43
2018-05-05T12:17:05.538Z,15.10
2018-05-05T12:19:33.103Z,16.40
2018-05-05T12:22:00.510Z,9.93
2018-05-05T12:24:27.947Z,13.77
2018-05-05T12:26:56.358Z,10.83
2018-05-05T12:29:23.771Z,10.10
2018-05-05T12:31:51.205Z,8.13
2018-05-05T12:34:18.617Z,6.70
2018-05-05T12:36:47.011Z,15.33
2018-05-05T12:39:14.413Z,9.10
2018-05-05T12:41:41.861Z,11.73
2018-05-05T12:44:09.270Z,11.00
2018-05-05T12:46:36.709Z,12.83
2018-05-05T12:49:04.186Z,11.40
2018-05-05T12:51:31.629Z,13.33
2018-05-05T12:53:59.041Z,13.23
2018-05-05T12:56:26.478Z,8.73
2018-05-05T12:58:53.893Z,11.40
2018-05-05T13:01:21.341Z,13.53
2018-05-05T13:03:48.766Z,13.67
2018-05-05T13:06:16.207Z,16.47
2018-05-05T13:08:43.656Z,17.17
2018-05-05T13:11:11.069Z,13.03
2018-05-05T13:13:38.501Z,14.00
2018-05-05T13:16:06.897Z,15.50
2018-05-05T13:18:34.334Z,11.43
2018-05-05T13:21:01.751Z,15.80
2018-05-05T13:23:30.096Z,13.23
2018-05-05T13:25:59.440Z,15.60
2018-05-05T13:28:27.799Z,10.53
2018-05-05T13:30:55.229Z,10.50
2018-05-05T13:33:22.665Z,13.67
2018-05-05T13:35:53.334Z,18.07
2018-05-05T13:38:21.813Z,11.10
2018-05-05T13:40:49.234Z,17.33
2018-05-05T13:43:16.675Z,14.03
2018-05-05T13:45:44.166Z,10.17
2018-05-05T13:48:11.631Z,11.00
2018-05-05T13:50:39.167Z,12.93
2018-05-05T13:53:06.718Z,9.87
2018-05-05T13:55:34.206Z,12.30
2018-05-05T13:58:01.564Z,8.97
2018-05-05T14:00:29.017Z,8.97
2018-05-05T14:02:56.495Z,14.77
2018-05-05T14:05:23.877Z,12.20
2018-05-05T14:07:51.290Z,6.17
2018-05-05T14:10:18.724Z,7.67
2018-05-05T14:12:46.137Z,10.30
2018-05-05T14:15:13.579Z,10.83
2018-05-05T14:17:41.027Z,8.00
2018-05-05T14:20:08.462Z,8.83
2018-05-05T14:22:35.895Z,9.97
2018-05-05T14:25:05.258Z,8.60
2018-05-05T14:27:32.677Z,8.83
2018-05-05T14:30:02.113Z,6.13
2018-05-05T14:32:29.526Z,8.70
2018-05-05T14:34:58.876Z,10.37
2018-05-05T14:37:26.286Z,6.43
2018-05-05T14:39:53.702Z,11.43
2018-05-05T14:42:21.137Z,6.87
2018-05-05T14:44:48.830Z,8.30
2018-05-05T14:47:17.173Z,8.33
2018-05-05T14:49:44.601Z,5.63
2018-05-05T14:52:12.025Z,7.47
2018-05-05T14:54:39.433Z,11.10
2018-05-05T14:57:06.874Z,5.70
2018-05-05T14:59:34.285Z,15.40
2018-05-05T15:02:01.725Z,8.03
2018-05-05T15:04:29.138Z,4.97
2018-05-05T15:06:56.572Z,5.60
2018-05-05T15:09:23.993Z,9.17
2018-05-05T15:11:51.450Z,10.10
2018-05-05T15:14:20.813Z,5.90
2018-05-05T15:16:48.250Z,6.60
2018-05-05T15:19:15.694Z,7.70
2018-05-05T15:21:47.973Z,3.93
2018-05-05T15:24:16.362Z,7.53
2018-05-05T15:26:44.713Z,4.27
2018-05-05T15:29:13.081Z,12.80
2018-05-05T15:31:41.651Z,3.90
2018-05-05T15:34:09.115Z,5.00
2018-05-05T15:36:36.497Z,5.67
2018-05-05T15:39:04.762Z,2.87
2018-05-05T15:41:32.211Z,4.90
2018-05-05T15:43:59.646Z,6.40
2018-05-05T15:46:27.062Z,10.40
2018-05-05T15:48:54.490Z,4.67
2018-05-05T15:51:21.928Z,5.63
2018-05-05T15:53:49.733Z,5.33
2018-05-05T15:56:17.146Z,5.37
2018-05-05T15:58:44.579Z,5.27
2018-05-05T16:01:11.986Z,8.13
2018-05-05T16:03:39.393Z,7.70
2018-05-05T16:06:07.721Z,3.83
2018-05-05T16:08:35.141Z,6.50
2018-05-05T16:11:02.783Z,4.23
2018-05-05T16:13:30.197Z,5.53
2018-05-05T16:15:57.651Z,3.60
2018-05-05T16:18:25.049Z,8.70
2018-05-05T16:20:52.489Z,6.27
2018-05-05T16:23:19.898Z,5.87
2018-05-05T16:25:47.333Z,5.87
2018-05-05T16:28:14.739Z,5.40
2018-05-05T16:30:43.073Z,3.23
2018-05-05T16:33:10.477Z,5.73
2018-05-05T16:35:37.914Z,4.47
2018-05-05T16:38:05.325Z,8.33
2018-05-05T16:40:32.781Z,4.40
2018-05-05T16:43:00.195Z,6.60
2018-05-05T16:45:27.601Z,3.20
2018-05-05T16:47:55.042Z,6.03
2018-05-05T16:50:22.454Z,7.83
2018-05-05T16:52:49.894Z,5.33
2018-05-05T16:55:17.305Z,4.80
2018-05-05T16:57:44.742Z,5.47
2018-05-05T17:00:12.162Z,3.67
2018-05-05T17:02:39.605Z,3.40
2018-05-05T17:05:08.968Z,8.67
2018-05-05T17:07:36.406Z,6.60
2018-05-05T17:10:03.845Z,5.93
2018-05-05T17:12:50.248Z,4.80
2018-05-05T17:15:17.621Z,12.70
2018-05-05T17:17:45.056Z,6.53
2018-05-05T17:20:14.388Z,4.73
2018-05-05T17:22:41.818Z,9.60
2018-05-05T17:25:09.241Z,7.60
2018-05-05T17:27:36.678Z,5.17
2018-05-05T17:30:04.107Z,5.80
2018-05-05T17:32:31.563Z,7.60
2018-05-05T17:34:58.974Z,5.57
2018-05-05T17:37:26.386Z,11.33
2018-05-05T17:39:53.819Z,5.90
2018-05-05T17:42:22.279Z,6.80
2018-05-05T17:44:50.245Z,6.93
2018-05-05T17:47:18.529Z,4.70
2018-05-05T17:49:46.035Z,10.90
2018-05-05T17:52:13.410Z,10.60
2018-05-05T17:54:41.805Z,8.03
2018-05-05T17:57:09.298Z,6.53
2018-05-05T17:59:49.000Z,6.33
2018-05-05T18:02:16.569Z,14.30
2018-05-05T18:04:44.012Z,9.93
2018-05-05T18:07:11.418Z,5.90
2018-05-05T18:09:38.854Z,7.90
2018-05-05T18:12:06.257Z,3.77
2018-05-05T18:14:33.717Z,5.07
2018-05-05T18:17:02.115Z,7.33
2018-05-05T18:19:29.550Z,10.17
2018-05-05T18:21:56.971Z,5.40
2018-05-05T18:24:24.422Z,6.33
2018-05-05T18:26:51.837Z,7.87
2018-05-05T18:29:19.245Z,6.37
2018-05-05T18:31:47.704Z,6.20
2018-05-05T18:34:15.573Z,7.83
2018-05-05T18:36:43.926Z,6.90
2018-05-05T18:39:11.422Z,11.93
2018-05-05T18:41:39.753Z,8.63
2018-05-05T18:44:07.161Z,9.30
2018-05-05T18:46:34.593Z,9.60
2018-05-05T18:49:03.056Z,6.50
2018-05-05T18:51:30.492Z,5.90
2018-05-05T18:53:57.897Z,6.03
2018-05-05T18:56:25.341Z,7.13
2018-05-05T18:58:52.750Z,8.57
2018-05-05T19:01:20.209Z,12.20
2018-05-05T19:03:47.625Z,9.53
2018-05-05T19:06:15.127Z,16.93
2018-05-05T19:08:42.492Z,8.43
2018-05-05T19:11:09.925Z,6.90
2018-05-05T19:13:37.342Z,5.43
2018-05-05T19:16:04.836Z,10.67
2018-05-05T19:18:32.217Z,11.53
2018-05-05T19:20:59.628Z,10.50
2018-05-05T19:23:28.064Z,9.37
2018-05-05T19:25:55.485Z,9.83
2018-05-05T19:28:22.917Z,11.57
2018-05-05T19:30:50.334Z,10.17
2018-05-05T19:33:17.803Z,12.70
2018-05-05T19:35:46.134Z,13.40
2018-05-05T19:38:13.577Z,11.63
2018-05-05T19:40:41.005Z,13.83
2018-05-05T19:43:09.491Z,11.30
2018-05-05T19:45:36.892Z,12.60
2018-05-05T19:48:04.332Z,16.17
2018-05-05T19:50:31.761Z,18.60
2018-05-05T19:52:59.201Z,21.37
2018-05-05T19:55:26.633Z,21.87
2018-05-05T19:57:54.133Z,23.50
2018-05-05T20:00:21.549Z,20.27
2018-05-05T20:02:48.981Z,17.50
2018-05-05T20:07:52.942Z,22.93
2018-05-05T20:10:21.315Z,18.70
2018-05-05T20:12:48.740Z,20.27
2018-05-05T20:15:16.193Z,17.40
2018-05-05T20:17:44.521Z,17.77
2018-05-05T20:20:12.851Z,17.67
2018-05-05T20:22:42.294Z,13.93
2018-05-05T20:25:09.747Z,18.37
2018-05-05T20:27:38.425Z,14.63
2018-05-05T20:30:06.766Z,12.20
2018-05-05T20:32:34.177Z,12.07
2018-05-05T20:35:02.574Z,11.00
2018-05-05T20:37:29.994Z,8.17
2018-05-05T20:39:57.449Z,9.17
2018-05-05T20:42:28.545Z,8.73
2018-05-05T20:44:55.990Z,11.73
2018-05-05T20:47:23.409Z,6.80
2018-05-05T20:49:50.852Z,10.63
2018-05-05T20:52:18.259Z,9.30
2018-05-05T20:54:45.705Z,17.07
2018-05-05T20:57:15.017Z,8.03
2018-05-05T20:59:42.461Z,7.67
2018-05-05T21:02:09.897Z,7.80
2018-05-05T21:04:37.314Z,10.10
2018-05-05T21:07:05.653Z,15.87
2018-05-05T21:09:33.067Z,12.70
2018-05-05T21:12:00.506Z,7.27
2018-05-05T21:14:27.925Z,10.17
2018-05-05T21:16:55.379Z,11.07
2018-05-05T21:19:22.790Z,14.40
2018-05-05T21:21:50.235Z,8.57
2018-05-05T21:24:17.643Z,9.97
2018-05-05T21:26:45.078Z,10.63
2018-05-05T21:29:12.494Z,8.50
2018-05-05T21:31:39.932Z,7.53
2018-05-05T21:34:08.246Z,10.03
2018-05-05T21:36:35.709Z,8.00
2018-05-05T21:39:03.126Z,7.00
2018-05-05T21:41:30.537Z,8.23
2018-05-05T21:43:57.969Z,9.97
2018-05-05T21:46:26.290Z,11.80
2018-05-05T22:03:56.978Z,11.33
2018-05-05T22:06:24.391Z,12.20
2018-05-05T22:08:51.822Z,8.10
2018-05-05T22:11:19.247Z,8.43
2018-05-05T22:13:49.777Z,7.67
2018-05-05T22:16:17.189Z,8.83
2018-05-05T22:18:44.626Z,7.33
2018-05-05T22:21:15.766Z,11.50
2018-05-05T22:23:43.202Z,8.57
2018-05-05T22:26:10.622Z,7.70
2018-05-05T22:28:38.062Z,10.20
2018-05-05T22:31:05.478Z,7.20
2018-05-05T22:33:32.898Z,9.37
2018-05-05T22:36:00.332Z,9.33
2018-05-05T22:38:27.758Z,11.33
2018-05-05T22:40:55.200Z,10.03
2018-05-05T22:43:22.613Z,12.87
2018-05-05T22:45:50.953Z,7.87
2018-05-05T22:48:18.368Z,10.30
2018-05-05T22:50:45.805Z,7.00
2018-05-05T22:53:13.221Z,8.77
2018-05-05T22:55:40.654Z,9.67
2018-05-05T22:58:08.077Z,9.07
2018-05-05T23:00:35.498Z,7.53
2018-05-05T23:03:02.931Z,8.83
2018-05-05T23:05:31.255Z,9.03
2018-05-05T23:07:58.695Z,15.47
2018-05-05T23:10:26.117Z,5.97
2018-05-05T23:12:53.552Z,11.83
2018-05-05T23:15:20.965Z,7.67
2018-05-05T23:17:48.393Z,8.53
2018-05-05T23:20:16.716Z,9.57
2018-05-05T23:22:44.145Z,7.80
2018-05-05T23:25:11.557Z,7.20
2018-05-05T23:27:39.000Z,5.80
2018-05-05T23:30:06.426Z,10.53
2018-05-05T23:32:33.862Z,6.73
2018-05-05T23:35:01.278Z,7.90
2018-05-05T23:37:28.717Z,10.77
2018-05-05T23:43:10.991Z,6.93
2018-05-05T23:45:42.099Z,10.90
2018-05-05T23:48:09.556Z,6.10
2018-05-05T23:50:37.897Z,8.40
2018-05-05T23:53:06.133Z,11.67
2018-05-05T23:55:35.445Z,8.60
2018-05-05T23:58:09.451Z,7.77
